Zionsville, IN

4:27 PM EST on January 25, 2015 (GMT -0500)
Indianapolis Terry | Change Station
CLOSE
Current Station
Airport
Location: Indianapolis,
Elevation: 922 ft
Nearby Weather Stations
Active Advisory: Special Statement

Elev 922 ft 40.03 °N, 86.25 °W | Updated 12 minutes ago

Overcast
Overcast
33 °F
Feels Like 23 °F
N
14
Wind Variable Wind from NE

Today
High -- | Low -- °F
--% Chance of Precip.
Yesterday
High -- | Low -- °F
Precip. -- in
7:59 AM 5:55 PM
Waxing Crescent, 36% visible
Pressure 29.67 in
Visibility 4.0 miles
Clouds Overcast 300 ft
Windchill 23 °F
Dew Point 31 °F
Humidity 92%
Rainfall 0.15 in
Snow Depth Not available.
UV 0 out of 12
Pollen .10 out of 12
Air Quality Not available.
Flu Activity Not available.
METAR KTYQ 252115Z AUTO 05012KT 4SM BR OVC003 01/M01 A2967 RMK AO2 T00061006

More Conditions Fewer Conditions

Pressure 29.67 in
Visibility 4.0 miles
Clouds Overcast 300 ft
Windchill 23 °F
Dew Point 31 °F
Humidity 92%
Rainfall 0.15 in
Snow Depth Not available.
UV 0 out of 12
Pollen .10 out of 12
Air Quality Not available.
Flu Activity Not available.
METAR KTYQ 252115Z AUTO 05012KT 4SM BR OVC003 01/M01 A2967 RMK AO2 T00061006

More Conditions Fewer Conditions

10-Day Weather Forecast

Almanac

Astronomy

Jan. 25, 2015 Rise Set
Actual Time
Civil Twilight
Nautical Twilight
Astronomical Twilight
Moon
Length of Visible Light
Length of Day
Tomorrow will be .
, % of the Moon is Illuminated

Today's Extremes

State Highs State Lows

Community

WunderPhotos

Upload Photos

1,790,052 photos uploaded!

WunderBlogs® & News

Nearby

Air Quality

  Air Quality AQ Index Pollutant
Not available.

Snow Depth

Station Depth Elevation

Earthquake Activity

City Distance Mag. Time & Date
Minimum magnitude displayed is 2.5.

Coastal Water Temperatures

Place Temperature

Nearby Weather Stations